Time;durP1;ratioP1;P1;durP2;ratioP2;P2;SDS_P1;SDS_P2;PMS_P1;PMS_P2;Temp;Humidity;BMP_temperature;BMP_pressure;BME280_temperature;BME280_humidity;BME280_pressure;Samples;Min_cycle;Max_cycle;Signal;HPM_P1;HPM_P2
2021/07/24 00:00:57;;;;;;;16.43;14.80;;;;;;;22.93;72.09;95820.47;4995678;28;20420;-57
2021/07/24 00:03:23;;;;;;;16.70;15.00;;;;;;;22.91;72.41;95821.88;4995536;28;20903;-57
2021/07/24 00:05:49;;;;;;;17.00;15.40;;;;;;;22.94;71.96;95814.00;4995299;28;20748;-55
2021/07/24 00:08:14;;;;;;;14.83;13.43;;;;;;;22.94;72.36;95818.56;4994369;28;20421;-57
2021/07/24 00:10:39;;;;;;;16.60;15.00;;;;;;;22.93;72.67;95817.00;4994729;28;20663;-57
2021/07/24 00:13:05;;;;;;;16.73;15.03;;;;;;;22.95;72.42;95801.38;4995387;28;20250;-57
2021/07/24 00:15:30;;;;;;;16.23;14.67;;;;;;;22.94;72.59;95795.22;4995582;28;20228;-57
2021/07/24 00:17:56;;;;;;;17.00;15.40;;;;;;;22.86;73.14;95792.56;4995729;28;20170;-57
2021/07/24 00:20:22;;;;;;;15.93;13.87;;;;;;;22.86;72.97;95796.03;4995439;28;20265;-55
2021/07/24 00:22:47;;;;;;;15.90;14.40;;;;;;;22.85;73.25;95797.13;4977481;28;20896;-57
2021/07/24 00:25:13;;;;;;;21.10;14.07;;;;;;;22.82;73.53;95797.78;4976018;28;20260;-57
2021/07/24 00:27:38;;;;;;;16.30;14.73;;;;;;;22.82;73.97;95787.06;4976092;28;20170;-55
2021/07/24 00:30:04;;;;;;;16.07;14.40;;;;;;;22.81;73.98;95790.06;4983823;28;20169;-57
2021/07/24 00:32:29;;;;;;;15.60;14.00;;;;;;;22.80;74.54;95791.16;5015117;28;20263;-55
2021/07/24 00:34:55;;;;;;;16.23;14.73;;;;;;;22.78;74.43;95793.34;5014495;28;20938;-55
2021/07/24 00:37:21;;;;;;;17.90;16.10;;;;;;;22.76;74.57;95784.84;4997986;28;20202;-57
2021/07/24 00:39:48;;;;;;;16.53;14.80;;;;;;;22.73;74.44;95780.91;4995544;28;20495;-57
2021/07/24 00:42:24;;;;;;;16.40;14.63;;;;;;;22.75;73.95;95769.88;4995803;28;20177;-54
2021/07/24 00:44:51;;;;;;;17.37;15.47;;;;;;;22.72;73.81;95767.84;4994745;28;20427;-57
2021/07/24 00:47:20;;;;;;;17.30;15.70;;;;;;;22.70;73.77;95775.41;4995204;28;20424;-57
2021/07/24 00:49:46;;;;;;;17.77;16.07;;;;;;;22.61;74.76;95777.31;4995311;28;20404;-55
2021/07/24 00:52:13;;;;;;;16.23;14.67;;;;;;;22.63;74.58;95762.47;4991860;28;20465;-54
2021/07/24 00:54:39;;;;;;;16.40;14.50;;;;;;;22.63;74.58;95764.38;4994678;28;20425;-54
2021/07/24 00:57:05;;;;;;;16.60;15.10;;;;;;;22.60;74.44;95773.03;4994073;28;20471;-54
2021/07/24 00:59:31;;;;;;;15.37;13.90;;;;;;;22.56;74.57;95772.88;4994902;28;20423;-57
2021/07/24 01:01:56;;;;;;;15.50;14.10;;;;;;;22.51;75.14;95767.66;4994768;28;20408;-57
2021/07/24 01:04:22;;;;;;;16.43;14.73;;;;;;;22.56;74.81;95774.78;4994466;28;20189;-57
2021/07/24 01:06:49;;;;;;;16.20;14.80;;;;;;;22.57;74.59;95760.28;4979183;28;20312;-55
2021/07/24 01:09:15;;;;;;;20.13;16.33;;;;;;;22.52;74.78;95753.16;4975428;28;20260;-57
2021/07/24 01:11:40;;;;;;;16.83;15.03;;;;;;;22.50;74.83;95752.69;4975325;28;20460;-57
2021/07/24 01:14:06;;;;;;;17.43;15.73;;;;;;;22.50;74.66;95734.72;4974851;28;20429;-53
2021/07/24 01:16:32;;;;;;;17.43;15.73;;;;;;;22.50;74.71;95736.63;4975109;28;20544;-55
2021/07/24 01:18:57;;;;;;;17.50;15.70;;;;;;;22.48;74.61;95736.16;4975401;28;20185;-54
2021/07/24 01:21:28;;;;;;;16.63;15.03;;;;;;;22.44;74.64;95732.53;4988715;28;20196;-57
2021/07/24 01:23:54;;;;;;;16.00;14.50;;;;;;;22.34;75.33;95738.97;4994315;28;20204;-55
2021/07/24 01:26:31;;;;;;;16.50;15.00;;;;;;;22.31;76.10;95728.13;4994501;28;20423;-54
2021/07/24 01:28:56;;;;;;;16.20;14.70;;;;;;;22.30;76.33;95746.06;4994453;28;20412;-57
2021/07/24 01:31:23;;;;;;;17.13;15.47;;;;;;;22.35;75.78;95745.13;5008679;28;20595;-54
2021/07/24 01:33:48;;;;;;;16.77;15.07;;;;;;;22.36;75.75;95744.81;5013827;28;20203;-57
2021/07/24 01:36:14;;;;;;;16.53;15.00;;;;;;;22.34;75.50;95738.97;4996159;28;20421;-55
2021/07/24 01:38:40;;;;;;;17.17;15.47;;;;;;;22.33;75.38;95742.78;4994367;28;20255;-54
2021/07/24 01:41:06;;;;;;;16.70;15.10;;;;;;;22.35;75.22;95745.94;4992968;28;20177;-56
2021/07/24 01:43:32;;;;;;;16.00;14.40;;;;;;;22.32;75.42;95754.56;4993722;28;20419;-55
2021/07/24 01:45:57;;;;;;;15.60;14.10;;;;;;;22.30;75.68;95754.09;4994018;28;20436;-56
2021/07/24 01:48:42;;;;;;;15.97;14.37;;;;;;;22.30;75.81;95759.44;4994139;28;20260;-56
2021/07/24 01:53:57;;;;;;;17.10;15.40;;;;;;;22.25;76.29;95764.16;4974312;28;20425;-57
2021/07/24 01:56:28;;;;;;;17.00;15.00;;;;;;;22.19;76.31;95762.75;4974750;28;20492;-54
2021/07/24 01:58:53;;;;;;;16.03;14.47;;;;;;;22.27;75.70;95772.69;4975199;28;20420;-54
2021/07/24 02:01:21;;;;;;;16.53;14.83;;;;;;;22.29;75.29;95779.31;4974756;28;20413;-57
2021/07/24 02:03:53;;;;;;;17.40;15.70;;;;;;;22.27;75.14;95775.34;4974313;28;20194;-57
2021/07/24 02:06:19;;;;;;;15.47;14.17;;;;;;;22.21;75.56;95782.75;4989739;28;20424;-57
2021/07/24 02:08:47;;;;;;;15.43;13.93;;;;;;;22.25;75.62;95782.91;4993849;28;20887;-55
2021/07/24 02:11:13;;;;;;;15.00;13.50;;;;;;;22.20;74.79;95797.25;4992637;28;20463;-57
2021/07/24 02:13:39;;;;;;;14.73;13.37;;;;;;;22.20;74.66;95789.22;4993702;28;20813;-56
2021/07/24 02:16:06;;;;;;;14.27;12.83;;;;;;;22.19;74.79;95790.31;4993709;28;20408;-56
2021/07/24 02:18:32;;;;;;;14.93;13.43;;;;;;;22.30;74.87;95780.09;4993825;28;20181;-57
2021/07/24 02:21:00;;;;;;;14.63;13.20;;;;;;;22.32;75.17;95783.25;4984967;28;20432;-57
2021/07/24 02:23:25;;;;;;;14.33;13.13;;;;;;;22.30;75.29;95767.47;4993354;28;21367;-56
2021/07/24 02:25:51;;;;;;;15.33;13.53;;;;;;;22.36;74.98;95773.47;4993778;28;20503;-57
2021/07/24 02:28:16;;;;;;;14.63;13.20;;;;;;;22.37;74.93;95770.47;4993864;28;20169;-54
2021/07/24 02:30:42;;;;;;;14.53;13.27;;;;;;;22.38;74.70;95774.75;5002740;28;20583;-57
2021/07/24 02:33:07;;;;;;;14.67;13.10;;;;;;;22.38;74.78;95773.94;5013860;28;20259;-54
2021/07/24 02:35:33;;;;;;;14.97;13.40;;;;;;;22.34;75.30;95773.78;5007168;28;20200;-57
2021/07/24 02:37:58;;;;;;;15.77;14.23;;;;;;;22.31;75.51;95771.75;4997804;28;20181;-54
2021/07/24 02:40:24;;;;;;;14.43;13.03;;;;;;;22.37;74.79;95772.38;4997691;28;20231;-54
2021/07/24 02:42:49;;;;;;;14.77;13.47;;;;;;;22.34;74.49;95767.63;4997403;28;20174;-56
2021/07/24 02:45:15;;;;;;;15.20;13.90;;;;;;;22.38;73.99;95765.91;4996234;28;20702;-55
2021/07/24 02:47:40;;;;;;;16.13;14.20;;;;;;;22.42;73.39;95766.88;4997453;28;20180;-56
2021/07/24 02:50:06;;;;;;;14.63;12.40;;;;;;;22.38;73.93;95779.31;4989566;28;20582;-54
2021/07/24 02:52:32;;;;;;;14.50;13.00;;;;;;;22.34;74.88;95773.00;4977719;28;20198;-54
2021/07/24 02:54:57;;;;;;;14.30;12.90;;;;;;;22.40;74.52;95769.06;4977437;28;20202;-57
2021/07/24 02:57:22;;;;;;;14.20;12.80;;;;;;;22.45;74.27;95768.91;4978022;28;20281;-54
2021/07/24 02:59:48;;;;;;;13.90;12.47;;;;;;;22.47;74.16;95754.09;4977749;28;20189;-54
2021/07/24 03:02:15;;;;;;;14.23;12.90;;;;;;;22.45;73.96;95753.63;4977722;28;20383;-54
2021/07/24 03:04:41;;;;;;;14.70;13.30;;;;;;;22.41;73.77;95750.00;4983157;28;20686;-54
2021/07/24 03:07:06;;;;;;;13.07;11.87;;;;;;;22.44;72.82;95746.72;4996991;28;20416;-57
2021/07/24 03:09:31;;;;;;;13.60;12.20;;;;;;;22.44;73.09;95743.25;4997051;28;20177;-57
2021/07/24 03:11:57;;;;;;;15.03;13.43;;;;;;;22.42;72.91;95738.22;4997026;28;20284;-54
2021/07/24 03:14:22;;;;;;;14.17;12.83;;;;;;;22.41;72.92;95739.28;4996494;28;20185;-54
2021/07/24 03:16:47;;;;;;;14.00;12.70;;;;;;;22.48;72.70;95738.84;4997130;28;20582;-54
2021/07/24 03:19:13;;;;;;;13.33;12.03;;;;;;;22.50;72.45;95737.41;4992255;28;20178;-54
2021/07/24 03:21:38;;;;;;;13.60;12.30;;;;;;;22.51;72.28;95719.44;4977511;28;20187;-55
2021/07/24 03:24:04;;;;;;;13.83;12.53;;;;;;;22.54;72.26;95718.03;4977118;28;20724;-56
2021/07/24 03:26:29;;;;;;;12.57;11.47;;;;;;;22.55;72.46;95716.91;4977651;28;20178;-57
2021/07/24 03:28:54;;;;;;;12.90;11.80;;;;;;;22.48;73.45;95720.84;4977438;28;20212;-54
2021/07/24 03:31:20;;;;;;;12.83;11.63;;;;;;;22.53;73.35;95717.25;5005564;28;20235;-57
2021/07/24 03:33:45;;;;;;;12.87;11.33;;;;;;;22.50;73.59;95709.84;5012145;28;20251;-54
2021/07/24 03:36:10;;;;;;;12.60;11.40;;;;;;;22.55;73.19;95716.91;4996494;28;20169;-56
2021/07/24 03:38:36;;;;;;;13.27;12.00;;;;;;;22.47;73.17;95716.63;4996492;28;20205;-56
2021/07/24 03:41:04;;;;;;;13.47;12.17;;;;;;;22.52;73.22;95716.44;4995167;28;20651;-57
2021/07/24 03:43:31;;;;;;;13.63;12.33;;;;;;;22.55;73.09;95719.59;4996130;28;20587;-55
2021/07/24 03:45:56;;;;;;;12.70;11.40;;;;;;;22.56;72.79;95719.31;4996040;28;20903;-54
2021/07/24 03:48:22;;;;;;;13.63;12.37;;;;;;;22.51;73.07;95719.44;4994618;28;20450;-55
2021/07/24 03:50:47;;;;;;;14.00;12.60;;;;;;;22.53;72.95;95722.59;4976978;28;20628;-55
2021/07/24 03:53:13;;;;;;;13.60;12.27;;;;;;;22.49;70.78;95729.69;4976479;28;20185;-55
2021/07/24 03:55:38;;;;;;;13.27;11.93;;;;;;;21.96;70.51;95738.00;4976765;28;20289;-54
2021/07/24 03:58:04;;;;;;;13.43;12.07;;;;;;;21.96;70.66;95739.91;4976618;28;20187;-56
2021/07/24 04:03:24;;;;;;;13.40;11.87;;;;;;;22.28;70.03;95745.59;4976671;28;20185;-56
2021/07/24 04:05:52;;;;;;;14.80;12.40;;;;;;;22.36;70.58;95741.34;4996591;28;20902;-55
2021/07/24 04:08:17;;;;;;;12.93;11.77;;;;;;;22.25;70.22;95753.47;4994442;28;20519;-54
2021/07/24 04:10:43;;;;;;;12.63;11.43;;;;;;;22.16;71.59;95766.84;4996105;28;20495;-54
2021/07/24 04:13:08;;;;;;;12.50;11.30;;;;;;;22.31;71.87;95774.44;4995701;28;20197;-54
2021/07/24 04:15:36;;;;;;;13.43;12.23;;;;;;;22.44;71.57;95778.84;4995554;28;20194;-56
2021/07/24 04:18:02;;;;;;;13.00;11.70;;;;;;;22.48;71.42;95779.78;4995980;28;20177;-55
2021/07/24 04:20:28;;;;;;;15.97;13.80;;;;;;;22.55;71.63;95770.50;4996335;28;20412;-54
2021/07/24 04:22:53;;;;;;;14.10;12.60;;;;;;;22.55;71.17;95773.16;4977987;28;20424;-55
2021/07/24 04:25:18;;;;;;;13.57;12.37;;;;;;;22.47;71.24;95770.19;4976136;28;20676;-54
2021/07/24 04:27:44;;;;;;;13.23;11.93;;;;;;;22.55;71.50;95763.28;4976184;28;20641;-54
2021/07/24 04:30:10;;;;;;;13.50;12.20;;;;;;;22.57;72.18;95763.75;4985475;28;20654;-54
2021/07/24 04:32:36;;;;;;;13.33;11.90;;;;;;;22.61;72.84;95761.22;5014594;28;20208;-56
2021/07/24 04:35:03;;;;;;;13.17;11.87;;;;;;;22.61;73.41;95758.56;4997225;28;20538;-57
2021/07/24 04:37:29;;;;;;;12.67;11.47;;;;;;;22.62;73.44;95768.16;4995400;28;20181;-54
2021/07/24 04:39:54;;;;;;;12.30;11.00;;;;;;;22.59;73.52;95779.50;4995380;28;20427;-55
2021/07/24 04:42:20;;;;;;;13.33;12.00;;;;;;;22.60;73.50;95789.91;4995365;28;20193;-55
2021/07/24 04:44:45;;;;;;;12.37;11.13;;;;;;;22.60;73.14;95797.16;4994838;28;20620;-54
2021/07/24 04:47:11;;;;;;;12.90;11.70;;;;;;;22.59;73.13;95808.97;4995127;28;20263;-57
2021/07/24 04:49:46;;;;;;;13.43;12.13;;;;;;;22.63;73.66;95813.38;4979858;28;20229;-57
2021/07/24 04:52:11;;;;;;;13.23;12.03;;;;;;;22.55;72.34;95808.00;4975714;28;20209;-57
2021/07/24 04:54:36;;;;;;;12.73;11.53;;;;;;;22.61;73.54;95801.41;4975294;28;20528;-57
2021/07/24 04:57:02;;;;;;;13.70;11.97;;;;;;;22.39;72.07;95803.09;4982061;28;20177;-55
2021/07/24 04:59:29;;;;;;;12.70;11.50;;;;;;;22.47;72.68;95796.16;4995033;28;20177;-55
2021/07/24 05:01:55;;;;;;;14.13;11.80;;;;;;;22.57;73.31;95779.03;4993741;28;20179;-57
2021/07/24 05:04:20;;;;;;;18.67;12.00;;;;;;;21.97;70.91;95793.13;4994643;28;20958;-57
2021/07/24 05:06:45;;;;;;;12.80;11.50;;;;;;;22.18;70.10;95794.09;4988312;28;20414;-54
2021/07/24 05:09:11;;;;;;;12.67;11.37;;;;;;;22.14;69.21;95809.19;4975405;28;20712;-55
2021/07/24 05:11:36;;;;;;;13.17;11.97;;;;;;;22.27;71.47;95804.81;4976991;28;20201;-56
2021/07/24 05:14:01;;;;;;;13.00;11.80;;;;;;;22.38;71.47;95812.22;4993090;28;20596;-54
2021/07/24 05:16:27;;;;;;;12.57;11.37;;;;;;;22.19;72.08;95817.06;4975422;28;20178;-57
2021/07/24 05:18:52;;;;;;;11.93;10.83;;;;;;;22.42;73.51;95796.31;4975331;28;20174;-56
2021/07/24 05:21:18;;;;;;;13.90;12.30;;;;;;;22.36;72.78;95806.41;4975186;28;20225;-54
2021/07/24 05:23:44;;;;;;;12.87;11.70;;;;;;;22.25;72.80;95815.84;4974781;28;20229;-54
2021/07/24 05:26:15;;;;;;;13.03;11.57;;;;;;;22.57;73.00;95808.50;4975040;28;20257;-56
2021/07/24 05:28:42;;;;;;;12.73;11.30;;;;;;;22.65;72.81;95821.13;4992506;28;20429;-56
2021/07/24 05:31:15;;;;;;;12.60;11.23;;;;;;;22.75;72.82;95810.88;5006861;28;20821;-54
2021/07/24 05:33:40;;;;;;;12.60;11.40;;;;;;;22.86;72.71;95814.81;5013589;28;20894;-57
2021/07/24 05:36:06;;;;;;;13.40;12.03;;;;;;;22.97;73.11;95785.78;5002978;28;20437;-54
2021/07/24 05:38:31;;;;;;;13.73;12.20;;;;;;;23.10;74.71;95784.81;4994441;28;20177;-57
2021/07/24 05:40:58;;;;;;;12.53;11.23;;;;;;;23.22;73.13;95801.81;4994324;28;20229;-54
2021/07/24 05:43:23;;;;;;;12.27;10.87;;;;;;;23.16;73.03;95818.38;4993769;28;20189;-56
2021/07/24 05:45:49;;;;;;;12.90;11.63;;;;;;;23.04;72.17;95826.28;4994287;28;20429;-55
2021/07/24 05:48:14;;;;;;;12.60;11.47;;;;;;;23.15;71.54;95824.88;4977555;28;20687;-57
2021/07/24 05:50:39;;;;;;;11.63;10.53;;;;;;;23.33;72.91;95837.97;4974687;28;20656;-54
2021/07/24 05:53:05;;;;;;;13.13;11.83;;;;;;;23.33;71.17;95851.38;4974519;28;20184;-57
2021/07/24 05:55:30;;;;;;;12.93;11.73;;;;;;;23.13;72.69;95851.19;4981428;28;20672;-55
2021/07/24 05:57:55;;;;;;;12.80;11.50;;;;;;;23.33;71.66;95858.63;4994010;28;20659;-56
2021/07/24 06:00:21;;;;;;;12.07;10.87;;;;;;;23.45;71.93;95858.75;4993990;28;20173;-54
2021/07/24 06:02:46;;;;;;;13.93;12.53;;;;;;;23.37;71.44;95872.97;4994104;28;20224;-55
2021/07/24 06:05:11;;;;;;;13.87;12.40;;;;;;;23.02;72.16;95882.13;4993919;28;20205;-57
2021/07/24 06:07:37;;;;;;;13.87;12.20;;;;;;;23.17;72.37;95877.03;4979693;28;20182;-57
2021/07/24 06:10:03;;;;;;;13.20;11.90;;;;;;;23.22;71.62;95868.06;4982628;28;20268;-55
2021/07/24 06:12:28;;;;;;;12.73;11.53;;;;;;;23.32;72.83;95854.34;4993928;28;20690;-57
2021/07/24 06:14:53;;;;;;;12.90;11.60;;;;;;;23.30;73.52;95875.31;4993490;28;20236;-54
2021/07/24 06:17:19;;;;;;;13.50;12.30;;;;;;;23.16;73.12;95866.63;4994033;28;20582;-54
2021/07/24 06:19:44;;;;;;;14.50;12.57;;;;;;;23.31;73.10;95872.34;4993905;28;20177;-57
2021/07/24 06:22:09;;;;;;;11.90;10.80;;;;;;;23.39;73.88;95886.81;4993731;28;20169;-54
2021/07/24 06:24:35;;;;;;;12.17;11.07;;;;;;;23.18;73.71;95904.66;4986826;28;20198;-54
2021/07/24 06:27:00;;;;;;;13.33;12.03;;;;;;;23.05;73.42;95910.97;4981593;28;20186;-57
2021/07/24 06:29:25;;;;;;;12.17;11.07;;;;;;;22.94;71.32;95917.72;4974387;28;20174;-57
2021/07/24 06:31:51;;;;;;;14.07;12.63;;;;;;;23.14;71.50;95917.09;5009742;28;20196;-57
2021/07/24 06:34:16;;;;;;;13.00;11.80;;;;;;;23.00;70.63;95916.47;5012981;28;20223;-57
2021/07/24 06:36:41;;;;;;;14.43;11.37;;;;;;;22.98;70.18;95908.75;5013421;28;20184;-54
2021/07/24 06:39:07;;;;;;;13.27;11.97;;;;;;;23.06;69.24;95902.59;5013057;28;20235;-56
2021/07/24 06:41:34;;;;;;;12.80;11.50;;;;;;;23.38;69.25;95896.78;5004058;28;20217;-54
2021/07/24 06:43:59;;;;;;;13.00;11.80;;;;;;;23.62;70.13;95888.22;4993069;28;20680;-56
2021/07/24 06:46:25;;;;;;;12.83;11.60;;;;;;;23.81;71.66;95875.22;4993641;28;20429;-55
2021/07/24 06:48:50;;;;;;;13.27;11.90;;;;;;;23.72;69.29;95879.81;4993780;28;20616;-57
2021/07/24 06:51:16;;;;;;;13.23;11.90;;;;;;;23.58;68.95;95884.59;4993735;28;20201;-54
2021/07/24 06:53:41;;;;;;;12.73;11.40;;;;;;;23.43;69.24;95890.44;4991922;28;20181;-54
2021/07/24 06:56:07;;;;;;;12.30;11.20;;;;;;;23.68;69.16;95881.56;4975498;28;20210;-54
2021/07/24 06:58:33;;;;;;;12.37;11.27;;;;;;;23.91;67.90;95879.44;4974711;28;20174;-56
2021/07/24 07:00:58;;;;;;;12.23;11.13;;;;;;;24.02;68.57;95886.06;4983758;28;20169;-57
2021/07/24 07:03:24;;;;;;;12.67;11.47;;;;;;;24.16;68.75;95865.16;4992688;28;20435;-55
2021/07/24 07:05:50;;;;;;;12.77;11.57;;;;;;;24.33;70.14;95863.16;4993506;28;20568;-55
2021/07/24 07:08:16;;;;;;;13.53;12.20;;;;;;;24.43;70.92;95860.09;4993504;28;20180;-57
2021/07/24 07:10:41;;;;;;;13.00;11.80;;;;;;;24.51;72.06;95871.91;4993346;28;20176;-56
2021/07/24 07:13:07;;;;;;;12.50;11.20;;;;;;;24.59;72.11;95875.63;4993137;28;20413;-54
2021/07/24 07:15:33;;;;;;;12.10;11.10;;;;;;;24.61;72.22;95876.91;4992000;28;20288;-55
2021/07/24 07:17:58;;;;;;;13.67;11.53;;;;;;;24.64;70.90;95895.03;4976585;28;20186;-56
2021/07/24 07:20:24;;;;;;;13.63;12.33;;;;;;;24.68;68.39;95911.31;4976772;28;20185;-56
2021/07/24 07:22:49;;;;;;;12.73;11.53;;;;;;;24.66;66.84;95905.50;4977276;28;20178;-55
2021/07/24 07:25:15;;;;;;;12.63;11.53;;;;;;;24.66;67.48;95911.63;4980831;28;20207;-55
2021/07/24 07:27:41;;;;;;;13.50;11.80;;;;;;;24.73;69.45;95909.25;4997010;28;20177;-54
2021/07/24 07:30:08;;;;;;;13.70;12.40;;;;;;;24.83;70.42;95913.47;4996531;28;20189;-55
2021/07/24 07:32:34;;;;;;;11.87;10.87;;;;;;;24.80;70.90;95914.13;4992614;28;20463;-55
2021/07/24 07:34:59;;;;;;;14.63;13.23;;;;;;;24.71;69.49;95921.47;4986088;28;20437;-55
2021/07/24 07:37:24;;;;;;;12.43;11.23;;;;;;;24.79;69.80;95916.00;4986201;28;20204;-55
2021/07/24 07:39:51;;;;;;;13.50;12.20;;;;;;;24.88;71.14;95932.09;4986139;28;20186;-55
2021/07/24 07:42:17;;;;;;;13.83;12.57;;;;;;;24.56;69.18;95957.72;4990085;28;20178;-55
2021/07/24 07:44:42;;;;;;;12.97;11.70;;;;;;;24.21;70.05;95961.66;4993721;28;20962;-55
2021/07/24 07:47:08;;;;;;;15.03;12.70;;;;;;;23.97;70.10;95953.34;4986911;28;20578;-54
2021/07/24 07:49:33;;;;;;;15.00;13.60;;;;;;;23.87;70.94;95950.97;4987758;28;20223;-55
2021/07/24 07:51:58;;;;;;;12.93;11.47;;;;;;;24.07;72.18;95955.69;4990874;28;20193;-55
2021/07/24 07:54:24;;;;;;;13.33;12.13;;;;;;;23.93;70.87;95963.94;4995624;28;20198;-57
2021/07/24 07:56:49;;;;;;;13.83;12.17;;;;;;;23.87;71.63;95975.13;4996379;28;20181;-55
2021/07/24 07:59:14;;;;;;;14.93;13.43;;;;;;;23.76;71.49;95960.47;4996170;28;20186;-55
2021/07/24 08:01:40;;;;;;;13.80;12.40;;;;;;;23.59;71.84;95980.06;4996369;28;20169;-57
2021/07/24 08:04:05;;;;;;;14.50;13.10;;;;;;;23.59;72.77;95961.28;4995067;28;20262;-57
2021/07/24 08:06:30;;;;;;;14.77;13.37;;;;;;;23.80;73.81;95956.84;4977279;28;20186;-57
2021/07/24 08:08:56;;;;;;;13.90;12.40;;;;;;;23.91;72.66;95949.25;4976584;28;20188;-57
2021/07/24 08:11:22;;;;;;;14.23;12.83;;;;;;;23.92;73.00;95914.00;4976848;28;20208;-55
2021/07/24 08:13:47;;;;;;;17.17;13.43;;;;;;;24.08;74.71;95888.25;4976018;28;20240;-56
2021/07/24 08:16:14;;;;;;;14.30;13.00;;;;;;;24.19;75.28;95851.06;4976467;28;20178;-57
2021/07/24 08:18:40;;;;;;;16.23;14.50;;;;;;;24.30;75.70;95841.53;4976517;28;20664;-57
2021/07/24 08:21:05;;;;;;;14.73;13.23;;;;;;;24.39;76.47;95824.25;4977384;28;20422;-56
2021/07/24 08:23:31;;;;;;;15.13;13.63;;;;;;;24.54;76.25;95835.53;4975924;28;20633;-58
2021/07/24 08:25:56;;;;;;;14.80;13.13;;;;;;;24.64;75.72;95837.84;4976278;28;20625;-58
2021/07/24 08:28:25;;;;;;;14.40;13.07;;;;;;;24.68;76.44;95818.03;4976289;28;20174;-58
2021/07/24 08:30:51;;;;;;;15.27;13.80;;;;;;;24.81;75.69;95818.91;4975501;28;20167;-56
2021/07/24 08:33:16;;;;;;;15.23;13.40;;;;;;;24.90;74.83;95808.84;4992596;28;20471;-56
2021/07/24 08:35:41;;;;;;;14.50;13.17;;;;;;;24.99;74.69;95796.13;4982232;28;20556;-57
2021/07/24 08:38:07;;;;;;;15.13;13.63;;;;;;;25.09;74.09;95784.97;4976060;28;20174;-58
2021/07/24 08:40:32;;;;;;;15.30;13.73;;;;;;;25.16;73.78;95786.00;4976009;28;20684;-56
2021/07/24 08:43:07;;;;;;;14.20;12.90;;;;;;;25.34;73.58;95790.09;4989801;28;20609;-57
2021/07/24 08:45:33;;;;;;;14.80;13.23;;;;;;;25.45;73.63;95790.47;4995102;28;20202;-56
2021/07/24 08:48:03;;;;;;;13.73;12.53;;;;;;;25.47;72.66;95788.22;4994957;28;20500;-58
2021/07/24 08:50:29;;;;;;;14.00;12.70;;;;;;;25.56;72.40;95788.91;4995269;28;20431;-56
2021/07/24 08:52:56;;;;;;;15.40;14.00;;;;;;;25.53;72.55;95794.19;4994763;28;20484;-56
2021/07/24 08:55:24;;;;;;;14.13;12.67;;;;;;;25.68;71.09;95798.91;4987725;28;20244;-58
2021/07/24 08:57:54;;;;;;;13.90;12.43;;;;;;;25.80;70.34;95799.69;4981944;28;20416;-58
2021/07/24 09:00:21;;;;;;;13.90;12.70;;;;;;;25.94;70.45;95802.06;4985721;28;20899;-57
2021/07/24 09:02:48;;;;;;;15.30;13.70;;;;;;;25.90;68.60;95796.56;4984030;28;20892;-55
2021/07/24 09:05:16;;;;;;;13.67;12.37;;;;;;;25.89;67.45;95797.69;4979096;28;20449;-57
2021/07/24 09:07:44;;;;;;;15.43;13.77;;;;;;;26.02;67.79;95790.38;4975514;28;20425;-57
2021/07/24 09:10:09;;;;;;;15.73;13.93;;;;;;;26.13;67.09;95791.53;4979869;28;20758;-56
2021/07/24 09:12:36;;;;;;;14.77;13.40;;;;;;;26.28;68.17;95797.03;4987703;28;20465;-60
2021/07/24 09:15:03;;;;;;;14.40;13.10;;;;;;;26.17;65.40;95824.75;4975428;28;20186;-58
2021/07/24 09:17:29;;;;;;;17.57;15.70;;;;;;;25.66;65.86;95823.47;4975337;28;20402;-58
2021/07/24 09:19:55;;;;;;;16.03;14.40;;;;;;;25.73;67.27;95828.31;4975221;28;20417;-56
2021/07/24 09:22:54;;;;;;;14.60;13.30;;;;;;;25.83;69.10;95827.88;4975365;28;20171;-56
2021/07/24 09:25:21;;;;;;;17.60;13.47;;;;;;;25.89;69.43;95840.75;4972026;28;20449;-58
2021/07/24 09:27:51;;;;;;;15.20;13.60;;;;;;;26.05;69.64;95841.69;4994388;28;20412;-58
2021/07/24 09:30:23;;;;;;;17.93;15.73;;;;;;;26.11;68.20;95842.25;4975054;28;20552;-58
2021/07/24 09:33:06;;;;;;;14.70;13.40;;;;;;;26.25;69.18;95848.88;4974653;28;20457;-57
2021/07/24 09:35:46;;;;;;;16.70;13.60;;;;;;;26.38;66.81;95841.56;4998678;28;20440;-58
2021/07/24 09:38:24;;;;;;;12.97;11.67;;;;;;;26.59;67.47;95839.53;5014219;28;20554;-56
2021/07/24 09:40:50;;;;;;;14.57;12.33;;;;;;;26.84;64.92;95853.78;5006303;28;20424;-56
2021/07/24 09:43:39;;;;;;;14.10;12.70;;;;;;;26.74;63.38;95846.16;4978074;28;20429;-57
2021/07/24 09:46:12;;;;;;;13.43;12.07;;;;;;;26.82;62.66;95845.22;4976787;28;20676;-60
2021/07/24 09:48:38;;;;;;;14.37;11.90;;;;;;;26.96;63.25;95840.28;4977605;28;20441;-59
2021/07/24 09:51:04;;;;;;;12.40;11.20;;;;;;;27.05;62.20;95840.91;4983483;28;20413;-59
2021/07/24 09:53:36;;;;;;;15.73;12.17;;;;;;;26.95;62.38;95836.78;4983901;28;20408;-59
2021/07/24 09:56:03;;;;;;;14.53;13.10;;;;;;;27.19;63.16;95831.28;4983134;28;20241;-60
2021/07/24 09:58:28;;;;;;;13.20;12.00;;;;;;;27.39;63.29;95821.44;4983547;28;20417;-57
2021/07/24 10:01:05;;;;;;;12.50;11.40;;;;;;;27.60;61.93;95807.69;4984627;28;21016;-59
2021/07/24 10:03:31;;;;;;;12.17;11.00;;;;;;;27.82;62.00;95799.78;4984640;28;20200;-59
2021/07/24 10:06:00;;;;;;;13.70;12.37;;;;;;;27.82;63.06;95812.50;4984305;28;20418;-60
2021/07/24 10:08:26;;;;;;;12.80;11.60;;;;;;;27.83;60.06;95828.34;4991139;28;20416;-57
2021/07/24 10:10:52;;;;;;;12.10;11.00;;;;;;;27.85;58.01;95833.41;4990818;28;20432;-56
2021/07/24 10:13:18;;;;;;;12.13;10.70;;;;;;;27.88;59.02;95836.22;4974213;28;20540;-57
2021/07/24 10:15:45;;;;;;;10.73;9.73;;;;;;;27.93;57.62;95837.88;4974618;28;20209;-57
2021/07/24 10:18:15;;;;;;;11.70;9.63;;;;;;;27.85;55.77;95823.38;4974418;28;20422;-57
2021/07/24 10:20:50;;;;;;;11.93;10.73;;;;;;;28.09;56.84;95823.25;4974582;28;20416;-60
2021/07/24 10:23:20;;;;;;;8.60;7.90;;;;;;;27.86;53.49;95816.06;4974493;28;20504;-60
2021/07/24 10:26:10;;;;;;;9.23;8.10;;;;;;;27.84;50.94;95811.03;4973425;28;20521;-59
2021/07/24 10:28:50;;;;;;;9.50;8.53;;;;;;;27.99;51.36;95798.66;4985115;28;20409;-58
2021/07/24 10:31:22;;;;;;;9.07;8.17;;;;;;;28.05;51.70;95803.44;4992316;28;20807;-57
2021/07/24 10:33:49;;;;;;;8.53;7.63;;;;;;;28.16;52.04;95803.69;4993356;28;20515;-59
2021/07/24 10:36:18;;;;;;;9.90;8.30;;;;;;;28.10;50.34;95808.59;4991895;28;20950;-60
2021/07/24 10:39:01;;;;;;;9.13;8.10;;;;;;;28.09;50.11;95796.22;4974502;28;20401;-59
2021/07/24 10:41:26;;;;;;;9.50;8.50;;;;;;;28.23;52.24;95793.84;4983472;28;20771;-57
2021/07/24 10:44:04;;;;;;;9.20;8.30;;;;;;;28.52;52.52;95789.06;4993266;28;20539;-58
2021/07/24 10:46:44;;;;;;;9.03;8.03;;;;;;;28.57;50.36;95789.59;4993750;28;20591;-59
2021/07/24 10:49:21;;;;;;;7.47;6.77;;;;;;;28.52;46.81;95791.78;4992729;28;20491;-57
2021/07/24 10:52:00;;;;;;;7.60;6.90;;;;;;;28.42;48.49;95798.50;4969971;28;20473;-56
2021/07/24 10:54:27;;;;;;;8.10;7.30;;;;;;;28.54;48.53;95808.44;4971603;28;20979;-57
2021/07/24 10:56:52;;;;;;;10.53;8.20;;;;;;;28.28;48.96;95804.38;4978113;28;20404;-59
2021/07/24 10:59:30;;;;;;;7.07;6.47;;;;;;;28.49;51.27;95800.56;4977178;28;20410;-56
2021/07/24 11:02:00;;;;;;;7.83;7.03;;;;;;;28.59;50.12;95813.59;4977436;28;20249;-56
2021/07/24 11:04:35;;;;;;;7.60;6.90;;;;;;;28.47;50.62;95817.16;4977531;28;20449;-56
2021/07/24 11:07:12;;;;;;;8.10;7.40;;;;;;;28.31;49.68;95811.78;4977675;28;20413;-59
2021/07/24 11:09:45;;;;;;;8.83;7.80;;;;;;;28.51;50.56;95809.91;4977594;28;20409;-59
2021/07/24 11:12:11;;;;;;;7.30;6.47;;;;;;;28.47;48.38;95805.53;4977453;28;20452;-56
2021/07/24 11:14:41;;;;;;;9.90;6.60;;;;;;;28.47;48.18;95802.84;4977116;28;20437;-60
2021/07/24 11:19:33;;;;;;;8.50;7.57;;;;;;;28.53;47.77;95818.50;4985709;28;20508;-56
2021/07/24 11:22:13;;;;;;;7.87;7.17;;;;;;;28.17;47.36;95819.56;4996983;28;20165;-60
2021/07/24 11:24:40;;;;;;;8.00;7.20;;;;;;;28.09;48.42;95815.13;4996544;28;20432;-56
2021/07/24 11:27:06;;;;;;;9.93;7.37;;;;;;;28.13;49.55;95805.19;4997047;28;20447;-60